Time;durP1;ratioP1;P1;durP2;ratioP2;P2;SDS_P1;SDS_P2;PMS_P1;PMS_P2;Temp;Humidity;BMP_temperature;BMP_pressure;BME280_temperature;BME280_humidity;BME280_pressure;Samples;Min_cycle;Max_cycle;Signal;HPM_P1;HPM_P2
2023/06/20 00:00:58;;;;;;;8.10;7.30;;;;;;;;;;4936080;29;20318;-76
2023/06/20 00:03:26;;;;;;;7.90;6.82;;;;;;;;;;4935737;29;20200;-76
2023/06/20 00:05:53;;;;;;;7.70;6.93;;;;;;;;;;4936084;29;20235;-77
2023/06/20 00:08:20;;;;;;;7.93;7.13;;;;;;;;;;4935911;29;20211;-76
2023/06/20 00:10:47;;;;;;;8.23;7.43;;;;;;;;;;4935753;29;20287;-75
2023/06/20 00:13:17;;;;;;;7.70;6.95;;;;;;;;;;4935675;29;20223;-76
2023/06/20 00:15:44;;;;;;;8.00;7.00;;;;;;;;;;4947388;29;20213;-76
2023/06/20 00:18:13;;;;;;;7.95;7.15;;;;;;;;;;4954113;29;20321;-77
2023/06/20 00:20:40;;;;;;;7.60;6.78;;;;;;;;;;4954902;29;20338;-77
2023/06/20 00:23:07;;;;;;;8.18;7.18;;;;;;;;;;4954901;29;20246;-76
2023/06/20 00:25:35;;;;;;;8.27;6.95;;;;;;;;;;4954453;29;20274;-76
2023/06/20 00:28:03;;;;;;;7.53;6.78;;;;;;;;;;4954599;29;20294;-76
2023/06/20 00:30:30;;;;;;;9.45;7.45;;;;;;;;;;4954612;28;20213;-74
2023/06/20 00:32:58;;;;;;;8.50;7.28;;;;;;;;;;4954248;29;20295;-76
2023/06/20 00:35:27;;;;;;;8.90;8.00;;;;;;;;;;4971335;28;20195;-77
2023/06/20 00:37:54;;;;;;;8.35;7.57;;;;;;;;;;4973402;28;20205;-76
2023/06/20 00:40:21;;;;;;;8.23;7.53;;;;;;;;;;4973801;28;20288;-76
2023/06/20 00:42:48;;;;;;;9.02;7.75;;;;;;;;;;4973692;28;20281;-75
2023/06/20 00:45:27;;;;;;;7.93;7.13;;;;;;;;;;4973623;28;20246;-78
2023/06/20 00:47:54;;;;;;;8.65;7.85;;;;;;;;;;4973344;28;20225;-78
2023/06/20 00:50:26;;;;;;;9.20;8.30;;;;;;;;;;4973461;28;20542;-78
2023/06/20 00:52:55;;;;;;;10.60;7.82;;;;;;;;;;4973386;28;20203;-78
2023/06/20 00:55:22;;;;;;;8.68;7.50;;;;;;;;;;4973260;28;20210;-77
2023/06/20 00:57:50;;;;;;;8.30;7.50;;;;;;;;;;4973501;28;20578;-77
2023/06/20 01:00:17;;;;;;;8.23;7.30;;;;;;;;;;4972929;28;20210;-78
2023/06/20 01:02:46;;;;;;;8.55;7.65;;;;;;;;;;4973256;28;20571;-78
2023/06/20 01:05:14;;;;;;;9.00;7.53;;;;;;;;;;4972815;28;20202;-78
2023/06/20 01:07:44;;;;;;;7.90;7.15;;;;;;;;;;4972209;28;20751;-78
2023/06/20 01:10:18;;;;;;;8.60;7.70;;;;;;;;;;4961738;28;20718;-78
2023/06/20 01:12:49;;;;;;;8.77;7.30;;;;;;;;;;4953963;29;20285;-78
2023/06/20 01:15:19;;;;;;;8.38;7.47;;;;;;;;;;4952947;29;20749;-78
2023/06/20 01:17:49;;;;;;;8.50;7.60;;;;;;;;;;4953370;29;20333;-77
2023/06/20 01:20:19;;;;;;;7.80;7.00;;;;;;;;;;4946800;29;20681;-77
2023/06/20 01:22:57;;;;;;;9.38;7.85;;;;;;;;;;4934174;29;20266;-77
2023/06/20 01:25:33;;;;;;;8.98;8.07;;;;;;;;;;4934603;29;20206;-78
2023/06/20 01:28:07;;;;;;;10.73;7.35;;;;;;;;;;4934853;29;20220;-77
2023/06/20 01:30:38;;;;;;;9.77;7.90;;;;;;;;;;4936666;28;20207;-77
2023/06/20 01:33:08;;;;;;;8.30;7.50;;;;;;;;;;4972687;28;20285;-78
2023/06/20 01:35:36;;;;;;;8.50;7.57;;;;;;;;;;4972543;28;20257;-78
2023/06/20 01:38:08;;;;;;;8.52;7.70;;;;;;;;;;4972234;28;20229;-78
2023/06/20 01:40:37;;;;;;;8.13;7.32;;;;;;;;;;4972604;28;20301;-78
2023/06/20 01:43:05;;;;;;;8.90;7.97;;;;;;;;;;4972812;28;20198;-77
2023/06/20 01:45:34;;;;;;;8.25;7.50;;;;;;;;;;4972367;28;20295;-78
2023/06/20 01:48:02;;;;;;;8.57;7.75;;;;;;;;;;4972422;28;20289;-79
2023/06/20 01:50:30;;;;;;;8.80;7.78;;;;;;;;;;4972447;28;20718;-78
2023/06/20 01:52:58;;;;;;;8.98;7.70;;;;;;;;;;4972858;28;20227;-78
2023/06/20 01:55:28;;;;;;;8.32;7.53;;;;;;;;;;4972505;28;20293;-77
2023/06/20 01:57:58;;;;;;;10.27;8.27;;;;;;;;;;4972688;28;20623;-77
2023/06/20 02:00:26;;;;;;;8.40;7.60;;;;;;;;;;4972323;28;20297;-78
2023/06/20 02:02:55;;;;;;;9.05;8.13;;;;;;;;;;4972186;28;20347;-78
2023/06/20 02:05:23;;;;;;;8.82;7.97;;;;;;;;;;4972107;28;20198;-78
2023/06/20 02:07:51;;;;;;;9.15;8.25;;;;;;;;;;4972583;28;20289;-78
2023/06/20 02:10:21;;;;;;;8.60;7.82;;;;;;;;;;4972326;28;20242;-77
2023/06/20 02:12:49;;;;;;;9.32;7.97;;;;;;;;;;4971882;28;20198;-77
2023/06/20 02:15:17;;;;;;;9.07;8.18;;;;;;;;;;4963804;28;20657;-77
2023/06/20 02:17:45;;;;;;;9.52;8.40;;;;;;;;;;4953258;29;20234;-77
2023/06/20 02:20:13;;;;;;;9.95;8.95;;;;;;;;;;4955382;28;20235;-76
2023/06/20 02:22:42;;;;;;;9.40;8.13;;;;;;;;;;4956677;28;20241;-76
2023/06/20 02:25:10;;;;;;;9.43;8.43;;;;;;;;;;4956690;29;20689;-77
2023/06/20 02:27:39;;;;;;;9.20;8.30;;;;;;;;;;4956658;28;20298;-77
2023/06/20 02:30:09;;;;;;;10.23;8.23;;;;;;;;;;4956963;29;20629;-77
2023/06/20 02:32:37;;;;;;;9.57;8.68;;;;;;;;;;4956890;29;20290;-77
2023/06/20 02:35:05;;;;;;;9.20;8.30;;;;;;;;;;4956362;29;20578;-77
2023/06/20 02:37:34;;;;;;;10.57;8.02;;;;;;;;;;4956611;28;20239;-78
2023/06/20 02:40:01;;;;;;;9.68;8.68;;;;;;;;;;4956394;28;20199;-77
2023/06/20 02:42:28;;;;;;;9.15;8.23;;;;;;;;;;4956273;28;20623;-76
2023/06/20 02:44:55;;;;;;;9.63;8.73;;;;;;;;;;4956493;29;20635;-77
2023/06/20 02:47:26;;;;;;;9.18;8.27;;;;;;;;;;4956303;29;20196;-78
2023/06/20 02:49:57;;;;;;;9.88;8.88;;;;;;;;;;4956391;28;20210;-77
2023/06/20 02:52:28;;;;;;;8.82;7.97;;;;;;;;;;4956412;28;20293;-77
2023/06/20 02:55:12;;;;;;;9.30;8.23;;;;;;;;;;4956614;28;20284;-77
2023/06/20 02:57:40;;;;;;;9.27;8.38;;;;;;;;;;4956000;28;20231;-78
2023/06/20 03:00:09;;;;;;;9.60;8.70;;;;;;;;;;4956251;28;20262;-78
2023/06/20 03:02:41;;;;;;;9.85;8.85;;;;;;;;;;4955585;28;20227;-77
2023/06/20 03:05:11;;;;;;;10.90;8.55;;;;;;;;;;4955919;29;20313;-78
2023/06/20 03:07:41;;;;;;;9.68;8.70;;;;;;;;;;4956026;28;20305;-78
2023/06/20 03:10:09;;;;;;;9.55;8.57;;;;;;;;;;4956269;29;20677;-78
2023/06/20 03:12:37;;;;;;;11.98;9.38;;;;;;;;;;4956236;29;20230;-78
2023/06/20 03:15:04;;;;;;;9.55;8.65;;;;;;;;;;4955615;29;20238;-78
2023/06/20 03:17:35;;;;;;;10.02;8.57;;;;;;;;;;4955718;28;20243;-76
2023/06/20 03:20:05;;;;;;;9.35;8.35;;;;;;;;;;4955524;29;20233;-78
2023/06/20 03:22:33;;;;;;;10.45;9.07;;;;;;;;;;4955808;29;20239;-78
2023/06/20 03:25:00;;;;;;;9.82;8.82;;;;;;;;;;4955342;28;20242;-77
2023/06/20 03:27:27;;;;;;;11.35;9.10;;;;;;;;;;4955045;29;20239;-78
2023/06/20 03:29:54;;;;;;;10.02;8.93;;;;;;;;;;4955739;28;20290;-77
2023/06/20 03:32:22;;;;;;;11.02;9.05;;;;;;;;;;4954834;28;20227;-78
2023/06/20 03:34:49;;;;;;;9.98;8.90;;;;;;;;;;4955449;28;20306;-78
2023/06/20 03:37:17;;;;;;;12.05;9.65;;;;;;;;;;4955491;29;20210;-78
2023/06/20 03:39:44;;;;;;;9.88;8.88;;;;;;;;;;4955125;28;20726;-78
2023/06/20 03:42:12;;;;;;;10.32;9.30;;;;;;;;;;4954869;28;20277;-77
2023/06/20 03:44:39;;;;;;;10.25;9.25;;;;;;;;;;4955413;29;20228;-77
2023/06/20 03:47:06;;;;;;;12.55;8.77;;;;;;;;;;4955247;29;20199;-78
2023/06/20 03:49:33;;;;;;;9.80;8.88;;;;;;;;;;4955333;29;20399;-78
2023/06/20 03:52:01;;;;;;;10.95;9.07;;;;;;;;;;4955154;29;20694;-77
2023/06/20 03:54:29;;;;;;;11.13;9.50;;;;;;;;;;4955063;28;20580;-78
2023/06/20 03:56:57;;;;;;;10.35;8.98;;;;;;;;;;4954944;29;20286;-78
2023/06/20 03:59:24;;;;;;;12.15;9.90;;;;;;;;;;4955081;28;20290;-78
2023/06/20 04:01:51;;;;;;;9.55;8.30;;;;;;;;;;4954748;29;20712;-78
2023/06/20 04:04:18;;;;;;;11.07;9.00;;;;;;;;;;4955176;28;20597;-77
2023/06/20 04:06:49;;;;;;;10.95;8.85;;;;;;;;;;4954963;29;20223;-78
2023/06/20 04:09:16;;;;;;;10.65;9.55;;;;;;;;;;4954800;29;20199;-78
2023/06/20 04:11:45;;;;;;;10.30;9.20;;;;;;;;;;4955101;28;20199;-77
2023/06/20 04:14:12;;;;;;;11.05;9.68;;;;;;;;;;4954962;29;20246;-79
2023/06/20 04:16:39;;;;;;;12.02;10.07;;;;;;;;;;4955131;29;20326;-79
2023/06/20 04:19:06;;;;;;;11.38;10.18;;;;;;;;;;4954524;29;20335;-78
2023/06/20 04:21:33;;;;;;;12.27;10.27;;;;;;;;;;4954401;28;20210;-77
2023/06/20 04:24:00;;;;;;;12.60;10.35;;;;;;;;;;4954523;29;20235;-78
2023/06/20 04:26:29;;;;;;;15.68;11.50;;;;;;;;;;4954851;29;20294;-77
2023/06/20 04:28:57;;;;;;;12.73;11.43;;;;;;;;;;4954424;28;20207;-77
2023/06/20 04:31:25;;;;;;;12.18;10.77;;;;;;;;;;4954150;28;20583;-78
2023/06/20 04:33:54;;;;;;;13.88;12.23;;;;;;;;;;4954499;28;20285;-78
2023/06/20 04:36:21;;;;;;;13.77;11.07;;;;;;;;;;4954584;29;20241;-76
2023/06/20 04:38:48;;;;;;;14.43;11.15;;;;;;;;;;4954154;28;20227;-77
2023/06/20 04:41:16;;;;;;;13.25;11.25;;;;;;;;;;4954656;29;20286;-78
2023/06/20 04:43:44;;;;;;;12.80;11.13;;;;;;;;;;4953250;28;20318;-78
2023/06/20 04:46:15;;;;;;;14.63;11.43;;;;;;;;;;4953974;28;20199;-78
2023/06/20 04:48:44;;;;;;;12.60;11.30;;;;;;;;;;4954392;28;20199;-78
2023/06/20 04:51:11;;;;;;;15.55;11.70;;;;;;;;;;4954147;28;20203;-78
2023/06/20 04:53:39;;;;;;;13.52;11.38;;;;;;;;;;4954008;29;20207;-78
2023/06/20 04:56:06;;;;;;;14.77;11.70;;;;;;;;;;4954006;28;20203;-79
2023/06/20 04:58:33;;;;;;;13.13;11.55;;;;;;;;;;4953706;29;20294;-78
2023/06/20 05:01:01;;;;;;;15.70;11.95;;;;;;;;;;4953876;29;20289;-78
2023/06/20 05:03:29;;;;;;;15.48;12.15;;;;;;;;;;4954071;29;20716;-78
2023/06/20 05:05:56;;;;;;;14.15;11.60;;;;;;;;;;4953973;29;20278;-79
2023/06/20 05:08:23;;;;;;;14.45;11.82;;;;;;;;;;4953670;28;20290;-78
2023/06/20 05:10:51;;;;;;;14.20;11.70;;;;;;;;;;4953753;28;20234;-77
2023/06/20 05:13:18;;;;;;;14.40;11.80;;;;;;;;;;4953692;28;20282;-78
2023/06/20 05:15:45;;;;;;;14.15;12.27;;;;;;;;;;4954108;28;20294;-77
2023/06/20 05:18:12;;;;;;;13.95;11.77;;;;;;;;;;4953621;29;20317;-78
2023/06/20 05:20:41;;;;;;;14.35;11.70;;;;;;;;;;4953778;29;20388;-78
2023/06/20 05:23:08;;;;;;;13.43;11.70;;;;;;;;;;4953555;28;20269;-78
2023/06/20 05:25:36;;;;;;;13.52;12.02;;;;;;;;;;4953574;29;20715;-80
2023/06/20 05:28:04;;;;;;;15.35;12.55;;;;;;;;;;4953688;28;20203;-76
2023/06/20 05:30:31;;;;;;;13.40;11.85;;;;;;;;;;4953832;29;20286;-78
2023/06/20 05:32:58;;;;;;;14.40;11.63;;;;;;;;;;4953744;29;20294;-78
2023/06/20 05:35:25;;;;;;;15.63;11.88;;;;;;;;;;4953692;28;20313;-78
2023/06/20 05:37:54;;;;;;;17.27;11.48;;;;;;;;;;4952945;29;20199;-78
2023/06/20 05:40:21;;;;;;;13.23;11.82;;;;;;;;;;4953254;28;20231;-78
2023/06/20 05:42:48;;;;;;;12.57;10.82;;;;;;;;;;4951328;28;20322;-78
2023/06/20 05:45:15;;;;;;;13.52;11.50;;;;;;;;;;4949834;28;20744;-77
2023/06/20 05:47:44;;;;;;;14.15;12.27;;;;;;;;;;4952883;29;20289;-77
2023/06/20 05:50:11;;;;;;;15.60;12.13;;;;;;;;;;4953044;29;20195;-76
2023/06/20 05:52:38;;;;;;;13.98;11.35;;;;;;;;;;4943674;29;20231;-77
2023/06/20 05:55:08;;;;;;;14.00;11.63;;;;;;;;;;4945520;28;20302;-75
2023/06/20 05:57:35;;;;;;;15.05;12.07;;;;;;;;;;4952800;29;20206;-77
2023/06/20 06:00:11;;;;;;;12.57;11.15;;;;;;;;;;4952709;29;20683;-76
2023/06/20 06:02:38;;;;;;;15.18;11.90;;;;;;;;;;4951595;29;20593;-76
2023/06/20 06:05:06;;;;;;;14.75;11.88;;;;;;;;;;4940643;29;20756;-76
2023/06/20 06:07:33;;;;;;;14.55;12.60;;;;;;;;;;4934103;29;20230;-77
2023/06/20 06:10:00;;;;;;;13.20;11.60;;;;;;;;;;4959773;28;20206;-76
2023/06/20 06:12:29;;;;;;;16.58;11.85;;;;;;;;;;4971817;28;20660;-77
2023/06/20 06:14:56;;;;;;;14.18;11.93;;;;;;;;;;4965679;28;20294;-76
2023/06/20 06:17:23;;;;;;;13.98;12.40;;;;;;;;;;4951726;28;20262;-76
2023/06/20 06:19:50;;;;;;;13.80;12.00;;;;;;;;;;4951926;28;20290;-76
2023/06/20 06:22:20;;;;;;;13.98;12.57;;;;;;;;;;4952413;28;20314;-76
2023/06/20 06:24:47;;;;;;;13.35;11.95;;;;;;;;;;4951956;28;20627;-76
2023/06/20 06:27:14;;;;;;;15.13;11.68;;;;;;;;;;4952263;29;20294;-76
2023/06/20 06:29:43;;;;;;;12.68;10.88;;;;;;;;;;4952531;29;20268;-76
2023/06/20 06:32:10;;;;;;;15.25;11.35;;;;;;;;;;4952483;29;20223;-78
2023/06/20 06:34:37;;;;;;;12.90;11.23;;;;;;;;;;4952359;29;20223;-78
2023/06/20 06:37:05;;;;;;;13.30;11.60;;;;;;;;;;4952549;29;20234;-75
2023/06/20 06:39:33;;;;;;;13.43;11.25;;;;;;;;;;4952665;29;20290;-76
2023/06/20 06:42:00;;;;;;;13.02;11.70;;;;;;;;;;4952714;29;20203;-75
2023/06/20 06:44:27;;;;;;;15.15;11.68;;;;;;;;;;4951466;28;20222;-76
2023/06/20 06:46:56;;;;;;;12.15;10.73;;;;;;;;;;4961062;28;20293;-76
2023/06/20 06:49:23;;;;;;;13.80;10.95;;;;;;;;;;4946368;29;20246;-76
2023/06/20 06:51:50;;;;;;;14.13;11.85;;;;;;;;;;4952196;28;20677;-75
2023/06/20 06:54:17;;;;;;;12.52;10.82;;;;;;;;;;4952350;29;20208;-76
2023/06/20 06:56:44;;;;;;;11.85;10.65;;;;;;;;;;4952113;29;20672;-75
2023/06/20 06:59:11;;;;;;;11.55;10.25;;;;;;;;;;4952389;29;20203;-77
2023/06/20 07:01:39;;;;;;;13.02;11.00;;;;;;;;;;4952484;29;20294;-77
2023/06/20 07:04:07;;;;;;;12.07;10.20;;;;;;;;;;4952026;29;20624;-76
2023/06/20 07:06:35;;;;;;;10.63;9.63;;;;;;;;;;4953869;28;20223;-76
2023/06/20 07:09:02;;;;;;;14.57;10.20;;;;;;;;;;4955733;28;20199;-76
2023/06/20 07:11:29;;;;;;;13.15;9.75;;;;;;;;;;4955496;29;20290;-76
2023/06/20 07:13:56;;;;;;;10.88;9.77;;;;;;;;;;4955538;28;20294;-76
2023/06/20 07:16:25;;;;;;;11.70;10.43;;;;;;;;;;4955767;28;20303;-77
2023/06/20 07:18:52;;;;;;;10.38;9.38;;;;;;;;;;4955130;29;20273;-76
2023/06/20 07:21:21;;;;;;;11.45;9.48;;;;;;;;;;4955514;28;20196;-76
2023/06/20 07:23:48;;;;;;;11.18;8.95;;;;;;;;;;4967780;28;20680;-77
2023/06/20 07:26:15;;;;;;;10.18;9.18;;;;;;;;;;4940537;28;20241;-76
2023/06/20 07:28:42;;;;;;;11.45;8.80;;;;;;;;;;4937420;28;20204;-76
2023/06/20 07:31:10;;;;;;;11.57;8.75;;;;;;;;;;4935913;29;20240;-76
2023/06/20 07:33:37;;;;;;;9.55;8.63;;;;;;;;;;4935997;29;20200;-77
2023/06/20 07:36:08;;;;;;;9.40;8.23;;;;;;;;;;4936410;29;20235;-76
2023/06/20 07:38:37;;;;;;;8.90;8.00;;;;;;;;;;4935917;29;20295;-75
2023/06/20 07:41:04;;;;;;;8.95;8.05;;;;;;;;;;4935871;29;20227;-76
2023/06/20 07:43:31;;;;;;;9.55;8.40;;;;;;;;;;4936226;29;20228;-77
2023/06/20 07:45:58;;;;;;;9.18;8.25;;;;;;;;;;4935951;29;20206;-76
2023/06/20 07:48:27;;;;;;;10.25;7.90;;;;;;;;;;4935616;29;20207;-76
2023/06/20 07:50:54;;;;;;;8.45;7.43;;;;;;;;;;4954412;29;20199;-76
2023/06/20 07:53:21;;;;;;;8.07;7.28;;;;;;;;;;4954976;29;20607;-75
2023/06/20 07:55:50;;;;;;;8.38;6.28;;;;;;;;;;4954843;29;20203;-76
2023/06/20 07:58:19;;;;;;;7.47;6.68;;;;;;;;;;4955115;29;20207;-76
2023/06/20 08:00:46;;;;;;;9.60;6.78;;;;;;;;;;4955086;29;20203;-76
2023/06/20 08:03:13;;;;;;;7.75;6.90;;;;;;;;;;4954409;29;20321;-76
2023/06/20 08:05:40;;;;;;;7.95;7.18;;;;;;;;;;4955278;29;20196;-76
2023/06/20 08:08:08;;;;;;;7.78;6.70;;;;;;;;;;4954493;29;20226;-76
2023/06/20 08:10:35;;;;;;;7.07;6.38;;;;;;;;;;4954563;29;20840;-76
2023/06/20 08:13:03;;;;;;;8.07;6.55;;;;;;;;;;4953972;29;20222;-76
2023/06/20 08:15:31;;;;;;;7.78;6.97;;;;;;;;;;4954076;28;20289;-77
2023/06/20 08:17:58;;;;;;;7.78;7.00;;;;;;;;;;4953802;28;20286;-76
2023/06/20 08:20:25;;;;;;;7.20;6.50;;;;;;;;;;4954518;29;20203;-76
2023/06/20 08:22:52;;;;;;;7.57;6.47;;;;;;;;;;4954595;28;20310;-77
2023/06/20 08:25:19;;;;;;;8.95;6.40;;;;;;;;;;4954426;29;20278;-76
2023/06/20 08:27:46;;;;;;;6.18;5.35;;;;;;;;;;4954295;28;20199;-76
2023/06/20 08:30:15;;;;;;;6.53;5.90;;;;;;;;;;4953929;29;20210;-76
2023/06/20 08:32:44;;;;;;;6.28;5.20;;;;;;;;;;4954062;29;20294;-76
2023/06/20 08:35:11;;;;;;;6.30;5.25;;;;;;;;;;4953810;28;20681;-77
2023/06/20 08:37:38;;;;;;;5.90;5.30;;;;;;;;;;4954681;28;20230;-76
2023/06/20 08:40:08;;;;;;;5.97;5.20;;;;;;;;;;4953640;28;20241;-76
2023/06/20 08:42:36;;;;;;;5.85;5.07;;;;;;;;;;4953559;29;20300;-75
2023/06/20 08:45:03;;;;;;;7.47;5.30;;;;;;;;;;4953775;28;20238;-76
2023/06/20 08:47:32;;;;;;;5.30;4.80;;;;;;;;;;4954408;29;20203;-75
2023/06/20 08:49:59;;;;;;;5.40;4.90;;;;;;;;;;4953899;28;20571;-75
2023/06/20 08:52:30;;;;;;;5.40;4.90;;;;;;;;;;4953890;28;20196;-76
2023/06/20 08:54:57;;;;;;;5.75;5.15;;;;;;;;;;4953818;28;20651;-76
2023/06/20 08:57:25;;;;;;;7.18;5.75;;;;;;;;;;4953955;28;20234;-75
2023/06/20 08:59:53;;;;;;;7.45;4.97;;;;;;;;;;4956530;28;20210;-75
2023/06/20 09:02:21;;;;;;;6.00;5.40;;;;;;;;;;4954013;28;20203;-76
2023/06/20 09:05:01;;;;;;;6.35;5.32;;;;;;;;;;4944676;28;20229;-76
2023/06/20 09:07:34;;;;;;;7.15;5.80;;;;;;;;;;4969620;28;20205;-77
2023/06/20 09:10:02;;;;;;;6.65;5.35;;;;;;;;;;4948855;28;20351;-77
2023/06/20 09:12:29;;;;;;;6.15;5.18;;;;;;;;;;4946378;28;20282;-76
2023/06/20 09:14:56;;;;;;;6.40;5.10;;;;;;;;;;4948443;28;20334;-77
2023/06/20 09:17:24;;;;;;;5.85;4.82;;;;;;;;;;4954059;28;20783;-76
2023/06/20 09:19:51;;;;;;;5.57;4.85;;;;;;;;;;4942782;29;20274;-76
2023/06/20 09:22:21;;;;;;;6.65;4.97;;;;;;;;;;4943561;29;20205;-77
2023/06/20 09:24:48;;;;;;;6.13;5.53;;;;;;;;;;4944362;29;20314;-77
2023/06/20 09:27:15;;;;;;;7.50;4.90;;;;;;;;;;4942781;29;20579;-77
2023/06/20 09:29:52;;;;;;;5.50;5.00;;;;;;;;;;4941926;29;20668;-76
2023/06/20 09:32:21;;;;;;;6.45;4.80;;;;;;;;;;4943623;29;20290;-77
2023/06/20 09:34:48;;;;;;;5.03;4.53;;;;;;;;;;4942037;29;20200;-76
2023/06/20 09:37:17;;;;;;;4.82;4.30;;;;;;;;;;4943756;29;20202;-76
2023/06/20 09:39:45;;;;;;;6.35;4.53;;;;;;;;;;4943955;29;20199;-77
2023/06/20 09:42:13;;;;;;;5.05;4.55;;;;;;;;;;4941988;29;20296;-77
2023/06/20 09:44:41;;;;;;;6.03;4.28;;;;;;;;;;4942383;29;20318;-76
2023/06/20 09:47:08;;;;;;;4.93;4.43;;;;;;;;;;4939079;29;20199;-76
2023/06/20 09:49:36;;;;;;;5.68;3.95;;;;;;;;;;4933633;29;20298;-76
2023/06/20 09:52:04;;;;;;;4.70;3.97;;;;;;;;;;4933954;29;20210;-76
2023/06/20 09:54:36;;;;;;;4.45;3.60;;;;;;;;;;4933507;29;20286;-76
2023/06/20 09:57:10;;;;;;;4.47;3.78;;;;;;;;;;4937696;29;20216;-77
2023/06/20 09:59:39;;;;;;;5.53;3.80;;;;;;;;;;4933184;29;20203;-77
2023/06/20 10:02:09;;;;;;;4.68;3.85;;;;;;;;;;4937992;29;20547;-77
2023/06/20 10:04:39;;;;;;;5.63;4.20;;;;;;;;;;4951930;28;20230;-77
2023/06/20 10:07:06;;;;;;;4.90;3.63;;;;;;;;;;4949795;28;20200;-76
2023/06/20 10:09:33;;;;;;;5.07;3.75;;;;;;;;;;4944610;29;20246;-76
2023/06/20 10:12:01;;;;;;;3.90;3.28;;;;;;;;;;4943617;29;20225;-76
2023/06/20 10:14:30;;;;;;;4.20;3.80;;;;;;;;;;4942639;29;20196;-78
2023/06/20 10:16:57;;;;;;;5.05;3.35;;;;;;;;;;4944209;28;20259;-77
2023/06/20 10:19:24;;;;;;;4.35;3.55;;;;;;;;;;4941655;29;20236;-77
2023/06/20 10:21:56;;;;;;;3.80;3.20;;;;;;;;;;4942709;29;20205;-76
2023/06/20 10:24:25;;;;;;;4.70;3.40;;;;;;;;;;4943833;29;20707;-77
2023/06/20 10:26:54;;;;;;;4.22;3.20;;;;;;;;;;4942274;29;20291;-77
2023/06/20 10:29:21;;;;;;;4.55;3.05;;;;;;;;;;4941409;28;20200;-77
2023/06/20 10:31:57;;;;;;;4.35;3.30;;;;;;;;;;4944369;29;20274;-77
2023/06/20 10:34:36;;;;;;;4.80;3.10;;;;;;;;;;4941770;29;20191;-78
2023/06/20 10:37:17;;;;;;;3.85;3.00;;;;;;;;;;4941293;29;20287;-78
2023/06/20 10:39:54;;;;;;;3.58;2.95;;;;;;;;;;4941600;28;20206;-77
2023/06/20 10:42:37;;;;;;;4.78;2.97;;;;;;;;;;4945303;29;20310;-78
2023/06/20 10:45:21;;;;;;;3.35;3.05;;;;;;;;;;4936992;29;20739;-78
2023/06/20 10:47:49;;;;;;;3.15;2.85;;;;;;;;;;4937057;29;20677;-79
2023/06/20 10:50:17;;;;;;;5.53;3.03;;;;;;;;;;4937023;29;20299;-78
2023/06/20 10:52:44;;;;;;;3.67;2.97;;;;;;;;;;4936636;29;20291;-78
2023/06/20 10:55:14;;;;;;;5.05;2.80;;;;;;;;;;4937826;28;20200;-78
2023/06/20 10:57:44;;;;;;;4.68;2.55;;;;;;;;;;4975397;28;20673;-80
2023/06/20 11:00:13;;;;;;;3.65;2.75;;;;;;;;;;4975220;28;20282;-80
2023/06/20 11:02:41;;;;;;;2.92;2.63;;;;;;;;;;4975073;28;20202;-81
2023/06/20 11:05:10;;;;;;;4.38;2.97;;;;;;;;;;4975414;28;20265;-80
2023/06/20 11:07:51;;;;;;;3.38;2.80;;;;;;;;;;4974909;28;20202;-78
2023/06/20 11:10:20;;;;;;;3.47;2.88;;;;;;;;;;4975099;28;20225;-79
2023/06/20 11:12:47;;;;;;;7.03;2.97;;;;;;;;;;4974998;28;20199;-79
2023/06/20 11:15:24;;;;;;;3.58;2.85;;;;;;;;;;4967439;28;20294;-80
2023/06/20 11:17:51;;;;;;;4.28;3.45;;;;;;;;;;4955579;29;20315;-79
2023/06/20 11:20:21;;;;;;;4.40;2.80;;;;;;;;;;4955634;28;20286;-80
2023/06/20 11:22:49;;;;;;;3.65;2.78;;;;;;;;;;4955380;29;20207;-80
2023/06/20 11:25:26;;;;;;;3.15;2.70;;;;;;;;;;4955504;28;20323;-79
2023/06/20 11:27:53;;;;;;;3.30;2.78;;;;;;;;;;4955594;29;20293;-80
2023/06/20 11:30:27;;;;;;;2.95;2.65;;;;;;;;;;4944383;29;20195;-79
2023/06/20 11:33:01;;;;;;;3.03;2.60;;;;;;;;;;4944363;29;20230;-78
2023/06/20 11:35:43;;;;;;;3.05;2.75;;;;;;;;;;4945117;29;20262;-79
2023/06/20 11:38:10;;;;;;;4.10;3.20;;;;;;;;;;4944987;29;20250;-79
2023/06/20 11:40:38;;;;;;;3.40;2.88;;;;;;;;;;4944683;29;20200;-79
2023/06/20 11:43:05;;;;;;;3.25;2.70;;;;;;;;;;4946029;29;20290;-80
2023/06/20 11:45:33;;;;;;;4.38;2.45;;;;;;;;;;4941016;29;20314;-80
2023/06/20 11:48:10;;;;;;;2.58;2.38;;;;;;;;;;4936202;29;20230;-79
2023/06/20 11:50:37;;;;;;;4.40;2.60;;;;;;;;;;4955072;28;20723;-79
2023/06/20 11:53:06;;;;;;;3.22;2.80;;;;;;;;;;4954342;28;20339;-78
2023/06/20 11:55:46;;;;;;;2.67;2.45;;;;;;;;;;4954685;28;20200;-79
2023/06/20 11:58:14;;;;;;;3.25;2.50;;;;;;;;;;4955070;28;20207;-80
2023/06/20 12:00:45;;;;;;;3.08;2.50;;;;;;;;;;4954767;29;20303;-79
2023/06/20 12:03:15;;;;;;;2.60;2.40;;;;;;;;;;4955056;29;20286;-81
2023/06/20 12:05:42;;;;;;;3.08;2.55;;;;;;;;;;4954538;28;20258;-80
2023/06/20 12:08:13;;;;;;;2.92;2.60;;;;;;;;;;4954351;28;20207;-79
2023/06/20 12:10:41;;;;;;;4.45;2.58;;;;;;;;;;4954608;28;20268;-80
2023/06/20 12:13:08;;;;;;;5.88;2.78;;;;;;;;;;4950161;29;20203;-80
2023/06/20 12:15:36;;;;;;;2.65;2.35;;;;;;;;;;4952993;29;20294;-80
2023/06/20 12:18:03;;;;;;;3.33;2.50;;;;;;;;;;4954504;28;20314;-80
2023/06/20 12:20:31;;;;;;;3.22;2.53;;;;;;;;;;4955039;28;20752;-79
2023/06/20 12:22:59;;;;;;;3.50;2.25;;;;;;;;;;4954190;28;20583;-79
2023/06/20 12:25:27;;;;;;;2.55;2.28;;;;;;;;;;4954249;28;20802;-80
2023/06/20 12:27:54;;;;;;;3.75;2.30;;;;;;;;;;4954318;28;20203;-80
2023/06/20 12:30:22;;;;;;;3.78;2.50;;;;;;;;;;4953629;28;20200;-79
2023/06/20 12:32:49;;;;;;;3.65;2.40;;;;;;;;;;4954307;29;20707;-80
2023/06/20 12:35:16;;;;;;;2.70;2.38;;;;;;;;;;4954422;29;20618;-79
2023/06/20 12:37:43;;;;;;;3.97;2.40;;;;;;;;;;4953872;28;20206;-79
2023/06/20 12:40:13;;;;;;;2.67;2.35;;;;;;;;;;4954204;29;20203;-79
2023/06/20 12:42:42;;;;;;;3.10;2.60;;;;;;;;;;4949005;28;20243;-79
2023/06/20 12:45:10;;;;;;;3.75;2.50;;;;;;;;;;4935562;29;20576;-79
2023/06/20 12:47:37;;;;;;;3.17;2.45;;;;;;;;;;4935143;29;20263;-80
2023/06/20 12:50:05;;;;;;;3.20;2.42;;;;;;;;;;4935053;29;20294;-79
2023/06/20 12:52:32;;;;;;;2.65;2.45;;;;;;;;;;4934420;29;20733;-78
2023/06/20 12:55:00;;;;;;;2.72;2.53;;;;;;;;;;4934790;29;20295;-79
2023/06/20 12:57:27;;;;;;;4.13;3.10;;;;;;;;;;4934997;29;20294;-79
2023/06/20 12:59:56;;;;;;;4.40;2.40;;;;;;;;;;4934897;29;20196;-80
2023/06/20 13:02:24;;;;;;;3.88;2.78;;;;;;;;;;4934633;29;20299;-80
2023/06/20 13:04:53;;;;;;;2.88;2.58;;;;;;;;;;4934076;29;20232;-78
2023/06/20 13:07:21;;;;;;;3.20;2.80;;;;;;;;;;4934452;29;20255;-77
2023/06/20 13:09:49;;;;;;;3.33;2.67;;;;;;;;;;4934179;29;20200;-78
2023/06/20 13:12:16;;;;;;;4.50;2.65;;;;;;;;;;4934279;29;20270;-78
2023/06/20 13:14:44;;;;;;;4.75;2.60;;;;;;;;;;4938298;29;20575;-79
2023/06/20 13:17:14;;;;;;;3.70;2.42;;;;;;;;;;4952652;28;20258;-79
2023/06/20 13:19:41;;;;;;;2.83;2.40;;;;;;;;;;4953760;29;20206;-78
2023/06/20 13:22:08;;;;;;;3.10;2.53;;;;;;;;;;4949426;28;20214;-79
2023/06/20 13:24:39;;;;;;;4.13;2.58;;;;;;;;;;4950773;28;20278;-79
2023/06/20 13:27:07;;;;;;;3.60;2.78;;;;;;;;;;4956615;28;20667;-79
2023/06/20 13:29:34;;;;;;;3.05;2.55;;;;;;;;;;4969390;28;20738;-79
2023/06/20 13:32:02;;;;;;;3.75;2.30;;;;;;;;;;4958796;28;20294;-79
2023/06/20 13:34:30;;;;;;;3.53;2.47;;;;;;;;;;4959917;28;20233;-79
2023/06/20 13:36:57;;;;;;;4.18;2.70;;;;;;;;;;4949660;28;20197;-78
2023/06/20 13:39:26;;;;;;;3.30;2.42;;;;;;;;;;4964578;28;20290;-79
2023/06/20 13:41:54;;;;;;;2.42;2.20;;;;;;;;;;4955845;28;20224;-78
2023/06/20 13:44:21;;;;;;;2.78;2.25;;;;;;;;;;4965912;28;20207;-79
2023/06/20 13:46:48;;;;;;;3.00;2.50;;;;;;;;;;4962388;28;20202;-77
2023/06/20 13:49:16;;;;;;;3.50;2.30;;;;;;;;;;4952816;28;20206;-78
2023/06/20 13:51:44;;;;;;;4.75;2.35;;;;;;;;;;4952854;28;20294;-79
2023/06/20 13:54:12;;;;;;;3.92;2.15;;;;;;;;;;4940790;28;20724;-80
2023/06/20 13:56:39;;;;;;;2.65;2.40;;;;;;;;;;4952583;28;20203;-79
2023/06/20 13:59:06;;;;;;;2.58;2.38;;;;;;;;;;4955130;28;20294;-79
2023/06/20 14:01:34;;;;;;;2.80;2.25;;;;;;;;;;4950927;28;20286;-78
2023/06/20 14:04:02;;;;;;;2.70;2.25;;;;;;;;;;4964952;28;20199;-78
2023/06/20 14:06:30;;;;;;;3.30;2.40;;;;;;;;;;4955629;28;20226;-79
2023/06/20 14:08:58;;;;;;;4.45;2.35;;;;;;;;;;4960224;28;20222;-78
2023/06/20 14:11:25;;;;;;;3.03;2.58;;;;;;;;;;4963016;28;20202;-79
2023/06/20 14:13:53;;;;;;;3.45;2.50;;;;;;;;;;4964825;28;20227;-79
2023/06/20 14:16:20;;;;;;;3.58;2.53;;;;;;;;;;4973517;28;20301;-79
2023/06/20 14:18:47;;;;;;;3.00;2.55;;;;;;;;;;4971818;28;20676;-79
2023/06/20 14:21:14;;;;;;;4.78;2.50;;;;;;;;;;4954971;28;20688;-79
2023/06/20 14:23:42;;;;;;;3.28;2.30;;;;;;;;;;4950424;28;20561;-79
2023/06/20 14:26:10;;;;;;;3.05;2.30;;;;;;;;;;4956602;28;20265;-79
2023/06/20 14:28:37;;;;;;;5.10;2.60;;;;;;;;;;4961464;28;20205;-77
2023/06/20 14:31:05;;;;;;;5.53;2.47;;;;;;;;;;4970455;28;20235;-78
2023/06/20 14:33:32;;;;;;;3.50;2.33;;;;;;;;;;4963967;28;20641;-79
2023/06/20 14:35:59;;;;;;;2.42;2.00;;;;;;;;;;4959982;28;20195;-80
2023/06/20 14:38:26;;;;;;;4.50;2.50;;;;;;;;;;4960104;28;20282;-78
2023/06/20 14:40:54;;;;;;;3.85;2.10;;;;;;;;;;4958927;28;20202;-79
2023/06/20 14:43:22;;;;;;;5.45;2.70;;;;;;;;;;4971106;28;20282;-80